HKJK

Jomo Kenyatta International Airport

Nairobi, Kenya
METAR HKJK 222330Z 13009KT 9000 FEW008 OVC017 15/15 Q1022
Observed Flight Rules
Oct-22 @ 23:30 UTC (2 hours ago) Marginal Visual Flight Rules
Wind Visibility Clouds
130° at 9 knots 8,996 meters
  • Few at 800' AGL
  • Overcast at 1,700' AGL
Temperatures Readings
Current 15°C / 59°F
Dewpoint 15°C / 59°F
Humidity 100%
Altimeter 30.18" Hg
Pressure 1022 hPa
Elevation 1624
METAR HKJK 222330Z 13009KT 9000 FEW008 OVC017 15/15 Q1022
Observed Flight Rules
Oct-22 @ 23:30 UTC
(2 hours ago)
MVFR
Wind Visibility
130° at 9 knots 8,996 meters
Clouds
  • Few at 800' AGL
  • Overcast at 1,700' AGL
Temperature Dewpoint
15°C / 59°F 15°C / 59°F
Humidity Altimeter Pressure
100% 30.18" Hg 1022 hPa